Cerejeira, Brazil
Current Conditions -  °F | °C
As of 6:00 AM on Friday 19 Dec 2014 (Local Time) from SLSI Reporting Station
Drizzle Drizzle  
Wind Chill: 72°   Ceiling: 500
Heat Index: 72°   Visibility: 2.5mi
Dew Point: 72°   Wind: 0mph
Humidity: 100%   Direction: NA
Pressure: 29.77"   Gusts: NA
Location:  13.19°S, 60.81°W
Report Text: SLSI 191000Z 00000KT 4000 -DZ OVC005 22/22 Q1008
Loading
Personal Weather Stations






























Interactive Weather Map New forecast layout! Learn more

10-Day Weather Forecast

Advertisements
Track Severe Weather on mobile